Time;durP1;ratioP1;P1;durP2;ratioP2;P2;SDS_P1;SDS_P2;PMS_P1;PMS_P2;Temp;Humidity;BMP_temperature;BMP_pressure;BME280_temperature;BME280_humidity;BME280_pressure;Samples;Min_cycle;Max_cycle;Signal;HPM_P1;HPM_P2
2021/11/06 10:33:49;;;;;;;11.02;6.00;;;7.90;99.90;;;;;;5070633;28;20968;-78
2021/11/06 10:36:20;;;;;;;7.85;5.78;;;8.50;99.90;;;;;;5070712;28;20242;-78
2021/11/06 10:39:08;;;;;;;7.55;6.00;;;7.90;99.90;;;;;;5069320;28;20211;-78
2021/11/06 10:41:35;;;;;;;6.75;5.95;;;7.90;99.90;;;;;;5070586;28;20218;-78
2021/11/06 10:44:02;;;;;;;6.00;5.40;;;7.90;99.90;;;;;;5070454;28;20172;-78
2021/11/06 10:46:30;;;;;;;10.15;5.63;;;7.90;99.90;;;;;;5070293;28;20331;-78
2021/11/06 10:49:00;;;;;;;7.75;5.90;;;7.90;99.90;;;;;;5070520;28;20172;-78
2021/11/06 10:51:26;;;;;;;7.47;6.78;;;8.20;99.90;;;;;;5070267;28;20173;-78
2021/11/06 10:53:53;;;;;;;6.97;6.25;;;8.20;99.90;;;;;;5070359;28;20705;-78
2021/11/06 10:56:29;;;;;;;6.68;5.55;;;8.20;99.90;;;;;;5070249;28;20579;-78
2021/11/06 10:58:57;;;;;;;6.70;6.18;;;8.30;99.90;;;;;;5070366;28;20624;-78
2021/11/06 11:01:34;;;;;;;6.78;6.18;;;8.40;99.90;;;;;;5070110;28;20223;-78
2021/11/06 11:04:07;;;;;;;7.43;6.38;;;8.50;99.90;;;;;;5069066;28;20586;-79
2021/11/06 11:06:50;;;;;;;10.23;7.20;;;8.50;99.90;;;;;;5069997;28;20222;-78
2021/11/06 11:09:18;;;;;;;7.55;5.63;;;8.50;99.90;;;;;;5069602;28;20251;-78
2021/11/06 11:11:45;;;;;;;10.95;6.22;;;8.50;99.90;;;;;;5069733;28;20258;-78
2021/11/06 11:14:20;;;;;;;6.03;5.53;;;8.50;99.90;;;;;;5069827;28;20165;-78
2021/11/06 11:16:57;;;;;;;11.60;6.40;;;8.50;99.90;;;;;;5068584;28;20260;-78
2021/11/06 11:19:39;;;;;;;11.82;7.78;;;8.50;99.90;;;;;;5068432;28;20168;-78
2021/11/06 11:22:22;;;;;;;10.02;7.07;;;8.50;99.90;;;;;;5069718;28;20172;-79
2021/11/06 11:24:49;;;;;;;12.52;6.57;;;8.60;99.90;;;;;;5069708;28;20248;-78
2021/11/06 11:27:16;;;;;;;9.18;5.88;;;8.60;99.90;;;;;;5069606;28;20177;-78
2021/11/06 11:29:43;;;;;;;6.20;5.65;;;8.70;99.90;;;;;;5069515;28;20657;-78
2021/11/06 11:32:11;;;;;;;9.50;5.90;;;8.80;99.90;;;;;;5069198;28;20240;-78
2021/11/06 11:34:40;;;;;;;7.15;5.47;;;8.80;99.90;;;;;;5069178;28;20169;-78
2021/11/06 11:37:06;;;;;;;5.82;5.18;;;8.90;99.90;;;;;;5069414;28;20172;-79
2021/11/06 11:39:32;;;;;;;5.63;5.00;;;9.20;99.90;;;;;;5069274;28;20173;-78
2021/11/06 11:42:31;;;;;;;6.53;4.88;;;9.20;99.90;;;;;;5068070;28;20226;-78
2021/11/06 11:45:07;;;;;;;9.93;5.53;;;9.30;99.90;;;;;;5055510;28;20614;-79
2021/11/06 11:47:36;;;;;;;7.70;5.47;;;9.40;99.90;;;;;;5056045;28;20196;-79
2021/11/06 11:50:10;;;;;;;5.07;4.78;;;9.40;99.90;;;;;;5054705;28;20176;-79
2021/11/06 11:52:42;;;;;;;5.80;4.45;;;9.50;99.90;;;;;;5055839;28;20247;-79
2021/11/06 11:55:12;;;;;;;7.03;5.13;;;9.50;99.90;;;;;;5055918;28;20195;-79
2021/11/06 11:57:41;;;;;;;6.90;4.07;;;9.50;99.90;;;;;;5054719;28;20172;-79
2021/11/06 12:00:19;;;;;;;4.28;3.97;;;9.60;99.90;;;;;;5055827;28;20165;-78
2021/11/06 12:02:59;;;;;;;8.93;3.72;;;9.70;99.90;;;;;;5054464;28;20169;-79
2021/11/06 12:05:28;;;;;;;3.85;3.60;;;9.70;99.90;;;;;;5055729;28;20168;-78
2021/11/06 12:08:30;;;;;;;4.10;3.70;;;10.10;99.90;;;;;;5055657;28;20173;-78
2021/11/06 12:11:03;;;;;;;3.55;3.25;;;9.80;99.90;;;;;;5044090;28;20556;-78
2021/11/06 12:13:32;;;;;;;8.13;3.45;;;9.70;99.90;;;;;;5055453;28;20635;-79
2021/11/06 12:16:06;;;;;;;3.33;3.13;;;9.90;99.90;;;;;;5055457;28;20610;-79
2021/11/06 12:18:35;;;;;;;4.97;3.40;;;9.80;99.90;;;;;;5055733;28;20558;-78
2021/11/06 12:21:20;;;;;;;2.83;2.72;;;9.80;99.90;;;;;;5054138;28;20165;-79
2021/11/06 12:23:54;;;;;;;3.90;3.65;;;9.80;99.90;;;;;;5055303;28;20161;-78
2021/11/06 12:26:26;;;;;;;3.92;3.63;;;9.80;99.90;;;;;;5055283;28;20168;-79
2021/11/06 12:29:11;;;;;;;3.63;3.33;;;9.80;99.90;;;;;;5053969;28;20256;-78
2021/11/06 12:31:43;;;;;;;3.90;3.42;;;10.10;99.90;;;;;;5054741;28;20221;-78
2021/11/06 12:34:10;;;;;;;3.20;2.90;;;10.10;99.90;;;;;;5055177;28;20646;-78
2021/11/06 12:36:42;;;;;;;4.50;2.55;;;10.20;99.90;;;;;;5055044;28;20184;-79
2021/11/06 12:39:12;;;;;;;3.25;3.05;;;10.20;99.90;;;;;;5055045;28;20236;-78
2021/11/06 12:41:38;;;;;;;3.08;2.78;;;10.20;99.90;;;;;;5053723;28;20165;-79
2021/11/06 12:44:08;;;;;;;2.45;2.35;;;10.30;99.90;;;;;;5054993;28;20623;-79
2021/11/06 12:46:39;;;;;;;2.53;2.40;;;10.40;99.90;;;;;;5054806;28;20212;-78
2021/11/06 12:49:10;;;;;;;5.38;2.58;;;10.50;99.90;;;;;;5054867;28;20184;-78
2021/11/06 12:51:42;;;;;;;2.38;2.28;;;10.60;99.90;;;;;;5054729;28;20165;-78
2021/11/06 12:54:10;;;;;;;2.95;2.72;;;11.10;99.90;;;;;;5054856;28;20619;-79
2021/11/06 12:56:46;;;;;;;2.97;2.65;;;10.70;99.90;;;;;;5053640;28;20260;-78
2021/11/06 12:59:14;;;;;;;2.60;2.42;;;10.70;99.90;;;;;;5054737;28;20165;-79
2021/11/06 13:01:52;;;;;;;2.33;2.22;;;10.70;99.90;;;;;;5054656;28;20169;-79
2021/11/06 13:04:18;;;;;;;7.68;2.65;;;10.70;99.90;;;;;;5053434;28;20535;-78
2021/11/06 13:06:48;;;;;;;2.70;2.03;;;10.60;99.90;;;;;;5054613;28;20177;-78
2021/11/06 13:09:24;;;;;;;4.15;2.05;;;10.80;99.90;;;;;;5054505;28;20161;-78
2021/11/06 13:11:58;;;;;;;1.70;1.60;;;10.70;99.90;;;;;;5054338;28;20196;-78
2021/11/06 13:14:46;;;;;;;3.70;2.55;;;10.70;99.90;;;;;;5054451;28;20248;-78
2021/11/06 13:17:24;;;;;;;1.70;1.60;;;10.70;99.90;;;;;;5054372;28;20168;-78
2021/11/06 13:19:50;;;;;;;6.70;1.70;;;10.70;99.90;;;;;;5054324;28;20507;-78
2021/11/06 13:22:24;;;;;;;1.70;1.67;;;10.70;99.90;;;;;;5054274;28;20184;-79
2021/11/06 13:24:52;;;;;;;1.60;1.60;;;10.80;99.90;;;;;;5054218;28;20571;-78
2021/11/06 13:28:08;;;;;;;2.83;1.60;;;10.90;99.90;;;;;;5054168;28;20211;-78
2021/11/06 13:30:53;;;;;;;2.08;1.98;;;10.70;99.90;;;;;;5044770;28;20180;-78
2021/11/06 13:33:25;;;;;;;3.97;2.42;;;10.70;99.90;;;;;;5053634;28;20585;-78
2021/11/06 13:35:58;;;;;;;2.28;1.58;;;10.70;99.90;;;;;;5053879;28;20165;-78
2021/11/06 13:38:38;;;;;;;1.63;1.52;;;10.70;99.90;;;;;;5054021;28;20523;-78
2021/11/06 13:41:18;;;;;;;1.80;1.70;;;10.70;99.90;;;;;;5053840;28;20188;-78
2021/11/06 13:43:58;;;;;;;1.75;1.58;;;10.70;99.90;;;;;;5053882;28;20219;-78
2021/11/06 13:46:53;;;;;;;6.18;1.58;;;10.60;99.90;;;;;;5053757;28;20188;-79
2021/11/06 13:49:19;;;;;;;1.38;1.27;;;10.60;99.90;;;;;;5053503;28;20223;-79
2021/11/06 13:52:11;;;;;;;1.80;1.70;;;10.60;99.90;;;;;;5053651;28;20196;-78
2021/11/06 13:54:43;;;;;;;3.80;1.50;;;10.50;99.90;;;;;;5052291;28;20188;-78
2021/11/06 13:57:22;;;;;;;1.55;1.55;;;10.60;99.90;;;;;;5052410;28;20169;-78
2021/11/06 13:59:52;;;;;;;2.08;1.88;;;10.50;99.90;;;;;;5053475;28;20164;-79
2021/11/06 14:02:38;;;;;;;6.85;1.70;;;10.50;99.90;;;;;;5053682;28;20173;-78
2021/11/06 14:05:14;;;;;;;2.50;1.60;;;10.50;99.90;;;;;;5054027;28;20169;-78
2021/11/06 14:07:40;;;;;;;1.40;1.35;;;10.40;99.90;;;;;;5053729;28;20188;-77
2021/11/06 14:10:18;;;;;;;2.00;1.80;;;10.50;99.90;;;;;;5053832;28;20165;-79
2021/11/06 14:12:58;;;;;;;1.60;1.50;;;10.50;99.90;;;;;;5053770;28;20192;-80
2021/11/06 14:15:32;;;;;;;1.48;1.42;;;10.50;99.90;;;;;;5053585;28;20191;-80
2021/11/06 14:18:11;;;;;;;2.60;1.45;;;10.70;99.90;;;;;;5053481;28;20161;-79
2021/11/06 14:20:43;;;;;;;1.45;1.45;;;10.40;99.90;;;;;;5053727;28;20195;-79
2021/11/06 14:23:14;;;;;;;1.70;1.60;;;10.40;99.90;;;;;;5053960;28;20176;-79
2021/11/06 14:25:43;;;;;;;2.20;1.60;;;10.50;99.90;;;;;;5053536;28;20169;-79
